createdAt,value
2017-10-21T00:00:43.261Z,82.24
2017-10-21T00:01:43.249Z,82.34
2017-10-21T00:02:43.231Z,82.24
2017-10-21T00:03:43.209Z,82.53
2017-10-21T00:04:43.230Z,82.34
2017-10-21T00:05:43.212Z,81.77
2017-10-21T00:06:43.158Z,82.72
2017-10-21T00:07:43.146Z,82.63
2017-10-21T00:08:43.150Z,82.53
2017-10-21T00:09:43.162Z,82.63
2017-10-21T00:10:43.095Z,82.63
2017-10-21T00:11:43.073Z,82.72
2017-10-21T00:12:43.063Z,82.53
2017-10-21T00:13:43.041Z,82.82
2017-10-21T00:14:43.080Z,82.53
2017-10-21T00:15:43.004Z,83.39
2017-10-21T00:16:42.987Z,83.11
2017-10-21T00:17:43.010Z,82.53
2017-10-21T00:18:42.951Z,82.53
2017-10-21T00:19:42.939Z,82.72
2017-10-21T00:20:42.956Z,83.11
2017-10-21T00:21:42.901Z,83.20
2017-10-21T00:22:42.924Z,82.82
2017-10-21T00:23:42.865Z,82.63
2017-10-21T00:24:42.847Z,82.53
2017-10-21T00:25:42.831Z,81.86
2017-10-21T00:26:42.817Z,82.43
2017-10-21T00:27:42.838Z,82.53
2017-10-21T00:28:42.786Z,82.34
2017-10-21T00:29:42.767Z,82.91
2017-10-21T00:30:42.744Z,82.82
2017-10-21T00:31:42.728Z,82.24
2017-10-21T00:32:42.763Z,82.53
2017-10-21T00:33:42.697Z,82.63
2017-10-21T00:34:52.341Z,82.82
2017-10-21T00:35:42.659Z,82.91
2017-10-21T00:36:42.640Z,82.43
2017-10-21T00:37:42.666Z,82.53
2017-10-21T00:38:42.605Z,82.43
2017-10-21T00:39:42.588Z,82.43
2017-10-21T00:40:42.567Z,82.63
2017-10-21T00:41:42.552Z,82.34
2017-10-21T00:42:42.570Z,82.53
2017-10-21T00:43:42.584Z,82.43
2017-10-21T00:44:42.703Z,82.53
2017-10-21T00:45:42.577Z,82.72
2017-10-21T00:46:42.464Z,82.43
2017-10-21T00:47:42.457Z,82.43
2017-10-21T00:48:42.429Z,82.43
2017-10-21T00:49:42.489Z,82.34
2017-10-21T00:50:42.555Z,82.43
2017-10-21T00:51:42.409Z,82.82
2017-10-21T00:52:42.361Z,82.34
2017-10-21T00:53:42.345Z,82.34
2017-10-21T00:54:42.329Z,82.43
2017-10-21T00:55:42.364Z,81.86
2017-10-21T00:56:42.292Z,82.53
2017-10-21T00:57:42.274Z,82.43
2017-10-21T00:58:42.260Z,82.63
2017-10-21T00:59:42.238Z,82.43
2017-10-21T01:00:42.285Z,82.34
2017-10-21T01:01:42.201Z,82.43
2017-10-21T01:02:42.198Z,81.67
2017-10-21T01:03:42.173Z,82.43
2017-10-21T01:04:42.152Z,82.53
2017-10-21T01:05:42.170Z,82.43
2017-10-21T01:06:42.136Z,82.53
2017-10-21T01:07:42.102Z,83.01
2017-10-21T01:08:42.081Z,82.34
2017-10-21T01:09:42.116Z,82.82
2017-10-21T01:10:42.046Z,82.91
2017-10-21T01:11:42.038Z,83.39
2017-10-21T01:12:42.017Z,82.72
2017-10-21T01:13:41.995Z,83.20
2017-10-21T01:14:42.021Z,82.53
2017-10-21T01:15:41.963Z,82.63
2017-10-21T01:16:41.944Z,83.20
2017-10-21T01:17:41.927Z,83.39
2017-10-21T01:18:41.907Z,83.29
2017-10-21T01:19:41.935Z,83.20
2017-10-21T01:20:41.873Z,83.39
2017-10-21T01:21:41.860Z,83.11
2017-10-21T01:22:41.838Z,83.67
2017-10-21T01:23:41.823Z,83.67
2017-10-21T01:24:41.847Z,83.58
2017-10-21T01:25:41.787Z,84.06
2017-10-21T01:26:41.770Z,83.87
2017-10-21T01:27:41.750Z,84.06
2017-10-21T01:28:41.736Z,83.67
2017-10-21T01:29:41.759Z,84.34
2017-10-21T01:30:41.697Z,84.06
2017-10-21T01:31:41.683Z,83.39
2017-10-21T01:32:41.667Z,84.34
2017-10-21T01:33:41.651Z,83.87
2017-10-21T01:34:41.674Z,84.69
2017-10-21T01:35:41.617Z,84.88
2017-10-21T01:36:41.613Z,84.88
2017-10-21T01:37:41.586Z,84.88
2017-10-21T01:38:51.382Z,84.40
2017-10-21T01:39:49.472Z,84.97
2017-10-21T01:40:41.524Z,84.69
2017-10-21T01:41:41.509Z,85.06
2017-10-21T01:42:41.499Z,85.16
2017-10-21T01:43:41.471Z,85.45
2017-10-21T01:44:41.455Z,85.16
2017-10-21T01:45:41.465Z,85.06
2017-10-21T01:46:41.454Z,85.16
2017-10-21T01:47:41.430Z,85.06
2017-10-21T01:48:41.383Z,85.73
2017-10-21T01:49:41.370Z,86.02
2017-10-21T01:50:41.393Z,85.45
2017-10-21T01:51:41.335Z,86.02
2017-10-21T01:52:41.313Z,85.54
2017-10-21T01:53:41.298Z,85.35
2017-10-21T01:54:41.277Z,85.54
2017-10-21T01:55:41.293Z,86.40
2017-10-21T01:56:41.240Z,85.73
2017-10-21T01:57:41.228Z,85.45
2017-10-21T01:58:41.241Z,86.11
2017-10-21T01:59:41.189Z,86.40
2017-10-21T02:00:41.205Z,86.02
2017-10-21T02:01:41.153Z,86.02
2017-10-21T02:02:41.141Z,86.98
2017-10-21T02:03:41.161Z,86.59
2017-10-21T02:04:41.099Z,86.02
2017-10-21T02:05:41.091Z,86.02
2017-10-21T02:06:41.065Z,86.69
2017-10-21T02:07:41.046Z,86.69
2017-10-21T02:08:41.062Z,86.69
2017-10-21T02:09:41.060Z,86.88
2017-10-21T02:10:40.994Z,86.98
2017-10-21T02:11:40.974Z,87.54
2017-10-21T02:12:40.970Z,87.26
2017-10-21T02:13:40.943Z,86.78
2017-10-21T02:14:40.966Z,87.26
2017-10-21T02:15:40.901Z,86.88
2017-10-21T02:16:40.894Z,87.16
2017-10-21T02:17:40.870Z,87.74
2017-10-21T02:18:40.850Z,87.35
2017-10-21T02:19:40.887Z,87.74
2017-10-21T02:20:40.819Z,87.74
2017-10-21T02:21:40.797Z,87.45
2017-10-21T02:22:40.782Z,87.35
2017-10-21T02:23:40.761Z,87.45
2017-10-21T02:24:40.789Z,87.16
2017-10-21T02:25:40.725Z,87.35
2017-10-21T02:26:40.706Z,87.64
2017-10-21T02:27:40.691Z,87.16
2017-10-21T02:28:40.677Z,87.07
2017-10-21T02:29:40.694Z,87.93
2017-10-21T02:30:40.636Z,87.45
2017-10-21T02:31:40.625Z,87.64
2017-10-21T02:32:40.602Z,87.54
2017-10-21T02:33:40.623Z,87.54
2017-10-21T02:34:40.576Z,87.26
2017-10-21T02:35:40.554Z,87.54
2017-10-21T02:36:40.529Z,88.21
2017-10-21T02:37:40.548Z,88.40
2017-10-21T02:38:40.500Z,88.31
2017-10-21T02:39:40.480Z,87.26
2017-10-21T02:40:40.462Z,87.45
2017-10-21T02:41:40.489Z,88.50
2017-10-21T02:42:40.428Z,88.02
2017-10-21T02:43:40.403Z,87.45
2017-10-21T02:44:40.389Z,87.54
2017-10-21T02:45:40.369Z,88.21
2017-10-21T02:46:40.396Z,87.45
2017-10-21T02:47:40.333Z,87.54
2017-10-21T02:48:40.319Z,87.45
2017-10-21T02:49:40.307Z,87.74
2017-10-21T02:50:40.282Z,87.45
2017-10-21T02:51:40.305Z,87.64
2017-10-21T02:52:40.245Z,87.45
2017-10-21T02:53:40.229Z,87.45
2017-10-21T02:54:40.210Z,87.54
2017-10-21T02:55:40.192Z,87.74
2017-10-21T02:56:40.220Z,87.74
2017-10-21T02:57:40.157Z,87.83
2017-10-21T02:58:40.140Z,87.26
2017-10-21T02:59:40.165Z,87.45
2017-10-21T03:00:40.110Z,87.26
2017-10-21T03:01:40.088Z,87.07
2017-10-21T03:02:40.066Z,87.35
2017-10-21T03:03:40.058Z,87.45
2017-10-21T03:04:40.076Z,87.45
2017-10-21T03:05:40.012Z,87.64
2017-10-21T03:06:39.995Z,87.45
2017-10-21T03:07:39.990Z,87.83
2017-10-21T03:08:39.964Z,87.35
2017-10-21T03:09:39.977Z,87.45
2017-10-21T03:10:39.923Z,87.54
2017-10-21T03:11:39.917Z,87.35
2017-10-21T03:12:39.927Z,87.35
2017-10-21T03:13:39.872Z,87.26
2017-10-21T03:14:39.890Z,87.83
2017-10-21T03:15:39.852Z,87.35
2017-10-21T03:16:39.821Z,87.54
2017-10-21T03:17:39.801Z,87.74
2017-10-21T03:18:39.784Z,87.26
2017-10-21T03:19:39.800Z,87.54
2017-10-21T03:20:39.749Z,87.07
2017-10-21T03:21:39.761Z,87.16
2017-10-21T03:22:39.714Z,87.35
2017-10-21T03:23:39.693Z,86.59
2017-10-21T03:24:39.706Z,87.07
2017-10-21T03:25:39.654Z,86.69
2017-10-21T03:26:39.642Z,86.78
2017-10-21T03:27:39.619Z,86.59
2017-10-21T03:28:39.600Z,86.40
2017-10-21T03:29:39.645Z,86.69
2017-10-21T03:30:39.566Z,86.21
2017-10-21T03:31:39.548Z,86.21
2017-10-21T03:32:39.534Z,86.02
2017-10-21T03:33:39.561Z,86.40
2017-10-21T03:34:39.493Z,86.30
2017-10-21T03:35:39.476Z,86.21
2017-10-21T03:36:39.460Z,86.40
2017-10-21T03:37:39.444Z,86.30
2017-10-21T03:38:39.457Z,86.30
2017-10-21T03:39:39.406Z,85.93
2017-10-21T03:40:39.386Z,85.83
2017-10-21T03:41:39.390Z,86.21
2017-10-21T03:42:39.351Z,86.21
2017-10-21T03:43:39.374Z,85.93
2017-10-21T03:44:39.328Z,85.93
2017-10-21T03:45:39.302Z,86.02
2017-10-21T03:46:39.326Z,85.54
2017-10-21T03:47:39.263Z,85.45
2017-10-21T03:48:48.984Z,85.64
2017-10-21T03:49:39.229Z,85.35
2017-10-21T03:50:39.213Z,85.54
2017-10-21T03:51:39.234Z,85.16
2017-10-21T03:52:39.172Z,85.45
2017-10-21T03:53:39.163Z,85.35
2017-10-21T03:54:39.140Z,85.25
2017-10-21T03:55:39.120Z,85.54
2017-10-21T03:56:39.137Z,85.54
2017-10-21T03:57:39.084Z,85.06
2017-10-21T03:58:39.101Z,85.54
2017-10-21T03:59:39.051Z,85.73
2017-10-21T04:00:39.029Z,85.54
2017-10-21T04:01:39.051Z,85.54
2017-10-21T04:02:38.991Z,85.64
2017-10-21T04:03:38.975Z,85.45
2017-10-21T04:04:39.014Z,85.73
2017-10-21T04:05:38.939Z,86.02
2017-10-21T04:06:38.920Z,85.54
2017-10-21T04:07:38.903Z,86.02
2017-10-21T04:08:38.886Z,85.83
2017-10-21T04:09:38.911Z,86.30
2017-10-21T04:10:38.854Z,86.02
2017-10-21T04:11:38.834Z,85.93
2017-10-21T04:12:38.819Z,86.30
2017-10-21T04:13:38.803Z,86.40
2017-10-21T04:14:38.814Z,86.02
2017-10-21T04:15:38.761Z,86.59
2017-10-21T04:16:38.778Z,86.02
2017-10-21T04:17:38.758Z,86.21
2017-10-21T04:18:38.711Z,86.02
2017-10-21T04:19:38.695Z,86.21
2017-10-21T04:20:38.672Z,86.02
2017-10-21T04:21:38.658Z,86.49
2017-10-21T04:22:38.672Z,86.49
2017-10-21T04:23:38.618Z,86.21
2017-10-21T04:24:38.608Z,86.78
2017-10-21T04:25:38.620Z,86.40
2017-10-21T04:26:38.567Z,86.11
2017-10-21T04:27:38.552Z,86.30
2017-10-21T04:28:38.571Z,86.40
2017-10-21T04:29:38.514Z,86.59
2017-10-21T04:30:38.494Z,86.59
2017-10-21T04:31:38.475Z,86.59
2017-10-21T04:32:38.460Z,86.59
2017-10-21T04:33:38.481Z,86.49
2017-10-21T04:34:38.425Z,86.59
2017-10-21T04:35:38.404Z,86.69
2017-10-21T04:36:38.424Z,86.49
2017-10-21T04:37:38.372Z,86.69
2017-10-21T04:38:38.385Z,86.78
2017-10-21T04:39:38.330Z,86.69
2017-10-21T04:40:38.351Z,86.88
2017-10-21T04:41:38.298Z,86.88
2017-10-21T04:42:38.283Z,87.54
2017-10-21T04:43:38.265Z,86.49
2017-10-21T04:44:38.298Z,86.69
2017-10-21T04:45:38.225Z,87.07
2017-10-21T04:46:38.208Z,86.49
2017-10-21T04:47:38.194Z,86.49
2017-10-21T04:48:38.173Z,86.59
2017-10-21T04:49:38.190Z,86.59
2017-10-21T04:50:38.136Z,86.69
2017-10-21T04:51:38.144Z,86.88
2017-10-21T04:52:48.027Z,86.59
2017-10-21T04:53:48.059Z,86.59
2017-10-21T04:54:38.109Z,86.59
2017-10-21T04:55:38.054Z,86.69
2017-10-21T04:56:38.033Z,86.69
2017-10-21T04:57:38.013Z,87.16
2017-10-21T04:58:37.998Z,86.69
2017-10-21T04:59:38.029Z,86.78
2017-10-21T05:00:37.956Z,86.69
2017-10-21T05:01:37.947Z,86.69
2017-10-21T05:02:37.921Z,87.07
2017-10-21T05:03:37.910Z,86.49
2017-10-21T05:04:37.921Z,86.49
2017-10-21T05:05:37.870Z,86.59
2017-10-21T05:06:37.849Z,86.69
2017-10-21T05:07:37.834Z,86.11
2017-10-21T05:08:37.848Z,86.49
2017-10-21T05:09:37.800Z,86.21
2017-10-21T05:10:37.778Z,86.30
2017-10-21T05:11:37.758Z,86.59
2017-10-21T05:12:37.793Z,86.30
2017-10-21T05:13:37.726Z,86.21
2017-10-21T05:14:37.704Z,86.30
2017-10-21T05:15:37.688Z,86.40
2017-10-21T05:16:37.669Z,86.30
2017-10-21T05:17:37.690Z,86.49
2017-10-21T05:18:37.633Z,86.30
2017-10-21T05:19:37.618Z,85.97
2017-10-21T05:20:37.658Z,86.54
2017-10-21T05:21:37.582Z,86.40
2017-10-21T05:22:37.565Z,86.11
2017-10-21T05:23:37.547Z,86.40
2017-10-21T05:24:37.533Z,86.11
2017-10-21T05:25:37.655Z,86.40
2017-10-21T05:26:37.741Z,86.44
2017-10-21T05:27:37.597Z,86.30
2017-10-21T05:28:37.499Z,86.40
2017-10-21T05:29:37.439Z,86.44
2017-10-21T05:30:37.417Z,86.40
2017-10-21T05:31:37.416Z,85.83
2017-10-21T05:32:37.385Z,86.63
2017-10-21T05:33:37.402Z,85.77
2017-10-21T05:34:37.351Z,85.97
2017-10-21T05:35:37.348Z,85.93
2017-10-21T05:36:37.312Z,86.35
2017-10-21T05:37:37.293Z,86.35
2017-10-21T05:38:37.319Z,86.63
2017-10-21T05:39:37.257Z,86.06
2017-10-21T05:40:37.241Z,86.06
2017-10-21T05:41:37.225Z,86.25
2017-10-21T05:42:37.207Z,86.63
2017-10-21T05:43:37.245Z,86.44
2017-10-21T05:44:37.171Z,86.54
2017-10-21T05:45:37.151Z,86.63
2017-10-21T05:46:37.137Z,86.35
2017-10-21T05:47:37.125Z,86.44
2017-10-21T05:48:37.151Z,86.73
2017-10-21T05:49:37.086Z,86.54
2017-10-21T05:50:37.064Z,86.69
2017-10-21T05:51:37.044Z,86.69
2017-10-21T05:52:37.026Z,87.26
2017-10-21T05:53:37.043Z,86.88
2017-10-21T05:54:36.991Z,87.64
2017-10-21T05:55:36.972Z,86.98
2017-10-21T05:56:36.958Z,87.54
2017-10-21T05:57:46.601Z,87.54
2017-10-21T05:58:44.687Z,87.26
2017-10-21T05:59:36.902Z,87.35
2017-10-21T06:00:36.881Z,87.35
2017-10-21T06:01:36.905Z,87.54
2017-10-21T06:02:36.846Z,87.26
2017-10-21T06:03:36.827Z,87.07
2017-10-21T06:04:36.809Z,87.07
2017-10-21T06:05:36.792Z,87.26
2017-10-21T06:06:36.808Z,87.45
2017-10-21T06:07:36.754Z,87.83
2017-10-21T06:08:36.803Z,88.21
2017-10-21T06:09:36.719Z,87.35
2017-10-21T06:10:36.700Z,87.74
2017-10-21T06:11:36.685Z,87.74
2017-10-21T06:12:36.671Z,87.45
2017-10-21T06:13:36.683Z,88.12
2017-10-21T06:14:36.631Z,87.93
2017-10-21T06:15:36.748Z,88.12
2017-10-21T06:16:36.836Z,88.02
2017-10-21T06:17:36.671Z,87.64
2017-10-21T06:18:36.838Z,88.21
2017-10-21T06:19:36.778Z,88.12
2017-10-21T06:20:36.679Z,88.69
2017-10-21T06:21:36.500Z,88.40
2017-10-21T06:22:36.909Z,88.78
2017-10-21T06:23:36.635Z,88.69
2017-10-21T06:24:36.653Z,88.50
2017-10-21T06:25:36.432Z,88.88
2017-10-21T06:26:36.413Z,88.69
2017-10-21T06:27:36.431Z,88.69
2017-10-21T06:28:36.378Z,88.88
2017-10-21T06:29:36.404Z,88.69
2017-10-21T06:30:36.340Z,88.69
2017-10-21T06:31:36.323Z,88.50
2017-10-21T06:32:36.305Z,88.59
2017-10-21T06:33:36.287Z,88.78
2017-10-21T06:34:36.310Z,88.02
2017-10-21T06:35:36.289Z,88.40
2017-10-21T06:36:36.232Z,88.02
2017-10-21T06:37:36.212Z,88.21
2017-10-21T06:38:36.199Z,88.31
2017-10-21T06:39:36.302Z,88.31
2017-10-21T06:40:36.213Z,88.31
2017-10-21T06:41:36.141Z,88.02
2017-10-21T06:42:36.127Z,88.02
2017-10-21T06:43:36.106Z,88.40
2017-10-21T06:44:36.092Z,88.12
2017-10-21T06:45:36.127Z,88.02
2017-10-21T06:46:36.060Z,88.02
2017-10-21T06:47:36.039Z,87.87
2017-10-21T06:48:36.018Z,88.12
2017-10-21T06:49:36.040Z,88.21
2017-10-21T06:50:36.065Z,87.97
2017-10-21T06:51:35.968Z,87.49
2017-10-21T06:52:35.955Z,87.59
2017-10-21T06:53:35.929Z,87.02
2017-10-21T06:54:35.958Z,87.11
2017-10-21T06:55:35.929Z,87.21
2017-10-21T06:56:35.904Z,86.92
2017-10-21T06:57:35.887Z,86.44
2017-10-21T06:58:35.841Z,86.63
2017-10-21T06:59:35.860Z,86.73
2017-10-21T07:00:35.806Z,86.54
2017-10-21T07:01:35.786Z,86.92
2017-10-21T07:02:35.809Z,86.16
2017-10-21T07:03:35.749Z,85.82
2017-10-21T07:04:35.740Z,85.82
2017-10-21T07:05:35.722Z,85.34
2017-10-21T07:06:35.701Z,84.77
2017-10-21T07:07:35.715Z,85.15
2017-10-21T07:08:35.668Z,85.25
2017-10-21T07:09:35.694Z,84.77
2017-10-21T07:10:35.627Z,85.05
2017-10-21T07:11:35.653Z,84.86
2017-10-21T07:12:35.594Z,83.99
2017-10-21T07:13:35.581Z,81.70
2017-10-21T07:14:35.561Z,82.14
2017-10-21T07:15:35.543Z,83.57
2017-10-21T07:16:35.570Z,83.72
2017-10-21T07:17:35.513Z,84.29
2017-10-21T07:18:35.508Z,84.86
2017-10-21T07:19:35.477Z,84.96
2017-10-21T07:20:35.461Z,84.48
2017-10-21T07:21:35.490Z,84.77
2017-10-21T07:22:35.461Z,84.77
2017-10-21T07:23:35.409Z,84.86
2017-10-21T07:24:35.397Z,85.25
2017-10-21T07:25:35.411Z,85.44
2017-10-21T07:26:35.360Z,84.86
2017-10-21T07:27:35.345Z,85.34
2017-10-21T07:28:35.375Z,85.63
2017-10-21T07:29:35.310Z,85.44
2017-10-21T07:30:35.290Z,85.05
2017-10-21T07:31:35.283Z,85.63
2017-10-21T07:32:35.296Z,85.63
2017-10-21T07:33:35.241Z,85.05
2017-10-21T07:34:35.238Z,85.63
2017-10-21T07:35:35.210Z,85.63
2017-10-21T07:36:35.191Z,85.91
2017-10-21T07:37:35.216Z,86.01
2017-10-21T07:38:35.160Z,85.82
2017-10-21T07:39:35.150Z,85.91
2017-10-21T07:40:35.121Z,85.44
2017-10-21T07:41:35.121Z,85.44
2017-10-21T07:42:35.121Z,85.05
2017-10-21T07:43:35.069Z,85.34
2017-10-21T07:44:35.095Z,84.96
2017-10-21T07:45:35.045Z,85.15
2017-10-21T07:46:35.022Z,84.96
2017-10-21T07:47:35.048Z,85.05
2017-10-21T07:48:34.992Z,84.77
2017-10-21T07:49:34.971Z,84.96
2017-10-21T07:50:34.949Z,84.96
2017-10-21T07:51:35.005Z,84.77
2017-10-21T07:52:34.961Z,84.77
2017-10-21T07:53:34.900Z,85.05
2017-10-21T07:54:34.882Z,85.34
2017-10-21T07:55:34.865Z,84.81
2017-10-21T07:56:34.853Z,84.86
2017-10-21T07:57:34.869Z,85.15
2017-10-21T07:58:34.821Z,85.05
2017-10-21T07:59:34.800Z,84.81
2017-10-21T08:00:34.782Z,84.91
2017-10-21T08:01:34.803Z,85.19
2017-10-21T08:02:34.748Z,84.81
2017-10-21T08:03:34.732Z,85.00
2017-10-21T08:04:34.717Z,84.52
2017-10-21T08:05:34.730Z,84.72
2017-10-21T08:06:34.680Z,84.33
2017-10-21T08:07:44.209Z,84.23
2017-10-21T08:08:34.648Z,84.62
2017-10-21T08:09:34.669Z,85.00
2017-10-21T08:10:34.611Z,84.52
2017-10-21T08:11:34.597Z,85.00
2017-10-21T08:12:34.580Z,84.91
2017-10-21T08:13:34.596Z,85.00
2017-10-21T08:14:34.543Z,85.00
2017-10-21T08:15:34.529Z,84.81
2017-10-21T08:16:34.513Z,84.81
2017-10-21T08:17:34.503Z,84.81
2017-10-21T08:18:34.509Z,85.29
2017-10-21T08:19:34.458Z,84.81
2017-10-21T08:20:34.487Z,84.91
2017-10-21T08:21:34.430Z,85.00
2017-10-21T08:22:34.437Z,84.81
2017-10-21T08:23:34.396Z,84.62
2017-10-21T08:24:34.428Z,85.10
2017-10-21T08:25:34.359Z,86.05
2017-10-21T08:26:34.342Z,87.10
2017-10-21T08:27:34.324Z,87.20
2017-10-21T08:28:34.307Z,87.10
2017-10-21T08:29:34.342Z,87.10
2017-10-21T08:30:34.274Z,89.39
2017-10-21T08:31:34.263Z,89.11
2017-10-21T08:32:34.240Z,89.83
2017-10-21T08:33:34.230Z,89.64
2017-10-21T08:34:34.241Z,90.02
2017-10-21T08:35:34.197Z,89.73
2017-10-21T08:36:34.171Z,90.11
2017-10-21T08:37:34.158Z,89.64
2017-10-21T08:38:34.138Z,89.78
2017-10-21T08:39:34.154Z,90.45
2017-10-21T08:40:34.110Z,90.36
2017-10-21T08:41:34.084Z,89.02
2017-10-21T08:42:34.119Z,89.97
2017-10-21T08:43:34.054Z,89.50
2017-10-21T08:44:34.037Z,89.78
2017-10-21T08:45:34.022Z,90.83
2017-10-21T08:46:33.997Z,90.17
2017-10-21T08:47:41.801Z,90.17
2017-10-21T08:48:33.968Z,90.07
2017-10-21T08:49:33.967Z,90.26
2017-10-21T08:50:33.942Z,89.50
2017-10-21T08:51:33.960Z,89.97
2017-10-21T08:52:33.892Z,89.97
2017-10-21T08:53:33.892Z,89.40
2017-10-21T08:54:33.859Z,89.21
2017-10-21T08:55:33.877Z,89.78
2017-10-21T08:56:33.844Z,90.26
2017-10-21T08:57:33.807Z,89.59
2017-10-21T08:58:33.790Z,89.97
2017-10-21T08:59:33.769Z,90.17
2017-10-21T09:00:33.785Z,89.59
2017-10-21T09:01:33.733Z,89.50
2017-10-21T09:02:33.751Z,89.78
2017-10-21T09:03:34.703Z,89.59
2017-10-21T09:04:33.681Z,89.21
2017-10-21T09:05:33.664Z,89.31
2017-10-21T09:06:33.692Z,89.59
2017-10-21T09:07:33.631Z,89.50
2017-10-21T09:08:33.618Z,89.40
2017-10-21T09:09:33.595Z,89.40
2017-10-21T09:10:33.575Z,89.69
2017-10-21T09:11:33.592Z,89.02
2017-10-21T09:12:33.540Z,89.31
2017-10-21T09:13:33.557Z,89.31
2017-10-21T09:14:33.512Z,89.50
2017-10-21T09:15:33.490Z,89.59
2017-10-21T09:16:33.467Z,89.69
2017-10-21T09:17:33.454Z,89.50
2017-10-21T09:18:33.469Z,89.69
2017-10-21T09:19:33.454Z,89.31
2017-10-21T09:20:33.396Z,89.40
2017-10-21T09:21:33.380Z,89.59
2017-10-21T09:22:33.364Z,89.40
2017-10-21T09:23:33.345Z,89.97
2017-10-21T09:24:33.366Z,89.97
2017-10-21T09:25:33.310Z,89.88
2017-10-21T09:26:33.296Z,89.31
2017-10-21T09:27:33.274Z,90.17
2017-10-21T09:28:33.258Z,89.97
2017-10-21T09:29:33.284Z,90.07
2017-10-21T09:30:33.220Z,89.78
2017-10-21T09:31:33.203Z,89.59
2017-10-21T09:32:33.189Z,89.78
2017-10-21T09:33:33.169Z,89.69
2017-10-21T09:34:33.187Z,90.26
2017-10-21T09:35:33.176Z,89.88
2017-10-21T09:36:33.137Z,90.17
2017-10-21T09:37:33.106Z,90.73
2017-10-21T09:38:33.097Z,90.36
2017-10-21T09:39:33.064Z,90.93
2017-10-21T09:40:33.081Z,90.64
2017-10-21T09:41:33.033Z,90.64
2017-10-21T09:42:33.019Z,90.73
2017-10-21T09:43:33.031Z,90.73
2017-10-21T09:44:32.977Z,90.93
2017-10-21T09:45:32.970Z,91.41
2017-10-21T09:46:32.941Z,91.12
2017-10-21T09:47:32.972Z,91.12
2017-10-21T09:48:32.922Z,91.21
2017-10-21T09:49:32.891Z,91.31
2017-10-21T09:50:32.872Z,91.21
2017-10-21T09:51:32.857Z,91.50
2017-10-21T09:52:32.869Z,91.50
2017-10-21T09:53:32.817Z,91.69
2017-10-21T09:54:32.800Z,91.69
2017-10-21T09:55:32.817Z,91.50
2017-10-21T09:56:32.768Z,91.50
2017-10-21T09:57:32.748Z,92.17
2017-10-21T09:58:32.729Z,92.26
2017-10-21T09:59:32.767Z,92.46
2017-10-21T10:00:32.697Z,92.31
2017-10-21T10:01:32.677Z,92.31
2017-10-21T10:02:32.680Z,92.74
2017-10-21T10:03:32.649Z,92.88
2017-10-21T10:04:32.659Z,92.60
2017-10-21T10:05:32.610Z,92.50
2017-10-21T10:06:32.592Z,93.12
2017-10-21T10:07:32.614Z,93.46
2017-10-21T10:08:32.561Z,93.17
2017-10-21T10:09:32.543Z,93.17
2017-10-21T10:10:32.530Z,92.97
2017-10-21T10:11:32.507Z,92.97
2017-10-21T10:12:32.524Z,93.17
2017-10-21T10:13:32.472Z,93.26
2017-10-21T10:14:32.454Z,93.17
2017-10-21T10:15:32.440Z,93.74
2017-10-21T10:16:42.301Z,93.74
2017-10-21T10:17:40.396Z,93.55
2017-10-21T10:18:32.387Z,93.93
2017-10-21T10:19:32.368Z,93.55
2017-10-21T10:20:32.351Z,93.84
2017-10-21T10:21:32.337Z,93.84
2017-10-21T10:22:32.316Z,94.41
2017-10-21T10:23:32.338Z,94.41
2017-10-21T10:24:32.288Z,94.41
2017-10-21T10:25:32.263Z,94.51
2017-10-21T10:26:32.244Z,94.31
2017-10-21T10:27:32.228Z,94.79
2017-10-21T10:28:32.246Z,94.70
2017-10-21T10:29:32.193Z,95.46
2017-10-21T10:30:32.218Z,95.36
2017-10-21T10:31:32.158Z,95.27
2017-10-21T10:32:32.144Z,95.70
2017-10-21T10:33:32.122Z,95.70
2017-10-21T10:34:32.109Z,95.51
2017-10-21T10:35:32.145Z,95.75
2017-10-21T10:36:32.073Z,95.89
2017-10-21T10:37:32.059Z,95.94
2017-10-21T10:38:32.036Z,96.17
2017-10-21T10:39:32.019Z,96.22
2017-10-21T10:40:32.042Z,96.17
2017-10-21T10:41:31.994Z,96.37
2017-10-21T10:42:32.014Z,96.13
2017-10-21T10:43:31.954Z,96.61
2017-10-21T10:44:31.933Z,96.75
2017-10-21T10:45:31.928Z,96.66
2017-10-21T10:46:31.901Z,97.32
2017-10-21T10:47:31.919Z,97.32
2017-10-21T10:48:31.923Z,97.23
2017-10-21T10:49:31.850Z,97.03
2017-10-21T10:50:31.839Z,97.23
2017-10-21T10:51:31.815Z,97.13
2017-10-21T10:52:31.802Z,97.71
2017-10-21T10:53:31.821Z,97.80
2017-10-21T10:54:31.764Z,98.18
2017-10-21T10:55:31.787Z,98.61
2017-10-21T10:56:31.730Z,98.13
2017-10-21T10:57:31.722Z,98.33
2017-10-21T10:58:31.698Z,98.23
2017-10-21T10:59:31.719Z,98.33
2017-10-21T11:00:31.681Z,98.71
2017-10-21T11:01:31.691Z,98.33
2017-10-21T11:02:31.638Z,98.42
2017-10-21T11:03:31.613Z,98.80
2017-10-21T11:04:31.598Z,99.09
2017-10-21T11:05:31.632Z,98.61
2017-10-21T11:06:31.562Z,98.61
2017-10-21T11:07:31.547Z,98.90
2017-10-21T11:08:31.533Z,98.42
2017-10-21T11:09:31.520Z,98.99
2017-10-21T11:10:31.534Z,98.61
2017-10-21T11:11:31.484Z,99.09
2017-10-21T11:12:31.500Z,98.99
2017-10-21T11:13:31.457Z,98.90
2017-10-21T11:14:31.433Z,99.57
2017-10-21T11:15:31.417Z,99.38
2017-10-21T11:16:31.408Z,99.57
2017-10-21T11:17:31.443Z,99.38
2017-10-21T11:18:31.385Z,99.57
2017-10-21T11:19:31.412Z,99.57
2017-10-21T11:20:31.342Z,98.71
2017-10-21T11:21:41.392Z,99.38
2017-10-21T11:22:31.307Z,99.09
2017-10-21T11:23:31.293Z,99.48
2017-10-21T11:24:31.322Z,99.38
2017-10-21T11:25:31.256Z,99.76
2017-10-21T11:26:31.239Z,99.95
2017-10-21T11:27:31.226Z,99.48
2017-10-21T11:28:31.206Z,99.66
2017-10-21T11:29:31.236Z,99.99
2017-10-21T11:30:31.178Z,99.99
2017-10-21T11:31:31.157Z,99.99
2017-10-21T11:32:31.140Z,99.99
2017-10-21T11:33:31.134Z,99.99
2017-10-21T11:34:31.165Z,99.99
2017-10-21T11:35:31.092Z,99.99
2017-10-21T11:36:31.079Z,99.99
2017-10-21T11:37:31.094Z,99.99
2017-10-21T11:38:31.078Z,99.99
2017-10-21T11:39:31.027Z,99.99
2017-10-21T11:40:31.012Z,99.99
2017-10-21T11:41:30.998Z,99.99
2017-10-21T11:42:30.979Z,99.99
2017-10-21T11:43:30.998Z,99.99
2017-10-21T11:44:30.949Z,99.99
2017-10-21T11:45:30.936Z,99.99
2017-10-21T11:46:30.951Z,99.99
2017-10-21T11:47:30.900Z,99.99
2017-10-21T11:48:30.883Z,99.99
2017-10-21T11:49:30.869Z,99.99
2017-10-21T11:50:30.853Z,99.99
2017-10-21T11:51:30.870Z,99.99
2017-10-21T11:52:30.870Z,99.99
2017-10-21T11:53:30.808Z,99.99
2017-10-21T11:54:30.788Z,99.99
2017-10-21T11:55:30.788Z,99.99
2017-10-21T11:56:30.761Z,99.99
2017-10-21T11:57:30.784Z,99.99
2017-10-21T11:58:30.731Z,99.99
2017-10-21T11:59:30.716Z,99.99
2017-10-21T12:00:30.703Z,99.99
2017-10-21T12:01:30.683Z,99.99
2017-10-21T12:02:30.716Z,99.99
2017-10-21T12:03:30.649Z,99.99
2017-10-21T12:04:30.635Z,99.99
2017-10-21T12:05:30.624Z,99.99
2017-10-21T12:06:30.615Z,99.99
2017-10-21T12:07:30.621Z,99.99
2017-10-21T12:08:30.573Z,99.99
2017-10-21T12:09:30.577Z,99.99
2017-10-21T12:10:30.542Z,99.99
2017-10-21T12:11:30.561Z,99.99
2017-10-21T12:12:30.557Z,99.99
2017-10-21T12:13:30.496Z,99.99
2017-10-21T12:14:30.480Z,99.99
2017-10-21T12:15:30.466Z,99.99
2017-10-21T12:16:30.449Z,99.99
2017-10-21T12:17:30.470Z,99.99
2017-10-21T12:18:30.422Z,99.99
2017-10-21T12:19:30.401Z,99.87
2017-10-21T12:20:30.393Z,99.67
2017-10-21T12:21:30.379Z,99.99
2017-10-21T12:22:30.392Z,99.99
2017-10-21T12:23:30.346Z,99.99
2017-10-21T12:24:30.327Z,99.99
2017-10-21T12:25:39.937Z,99.99
2017-10-21T12:26:39.971Z,99.99
2017-10-21T12:27:30.320Z,99.96
2017-10-21T12:28:30.276Z,99.99
2017-10-21T12:29:30.258Z,99.99
2017-10-21T12:30:30.241Z,99.63
2017-10-21T12:31:30.227Z,99.34
2017-10-21T12:32:30.247Z,99.43
2017-10-21T12:33:30.194Z,99.15
2017-10-21T12:34:30.179Z,98.86
2017-10-21T12:35:30.163Z,98.96
2017-10-21T12:36:30.148Z,98.81
2017-10-21T12:37:30.174Z,98.81
2017-10-21T12:38:30.124Z,98.91
2017-10-21T12:39:30.104Z,98.81
2017-10-21T12:40:30.096Z,98.52
2017-10-21T12:41:30.083Z,98.91
2017-10-21T12:42:30.090Z,97.85
2017-10-21T12:43:30.052Z,98.14
2017-10-21T12:44:30.031Z,97.95
2017-10-21T12:45:30.023Z,97.56
2017-10-21T12:46:30.048Z,97.09
2017-10-21T12:47:29.988Z,98.05
2017-10-21T12:48:29.984Z,97.66
2017-10-21T12:49:29.963Z,98.24
2017-10-21T12:50:29.946Z,97.85
2017-10-21T12:51:29.973Z,96.89
2017-10-21T12:52:29.916Z,98.33